Tuesday, March 03, 2015
20:19 UTC
  |  Log In   |  Register Free
Airport Search:

Pocono Mountains Municipal Airport
(KMPO)

Pocono Mountains Municipal Airport Diagram
No Airport Diagram Available

FAA data valid effective January 08, 2015 - March 05, 2015 (unless otherwise noted).

 
 
 
 
 
 
 
 
 
 
 
 
 
 

Current Aviation Weather for Pocono Mountains Municipal Airport (KMPO)

The most recent METAR observation for KMPO was updated at: 2011
METAR Summary (Translated METAR)
KMPO
031953Z AUTO 14008KT 1SM -SN SCT009 OVC018 M08/M11 A3009 RMK AO2 SLP225 P0001 T10781106
KAVP
031954Z 00000KT 1 1/4SM -SN BKN023 OVC039 M05/M08 A3012 RMK AO2 SLP213 P0003 T10501078
(19.6 nm NW from KMPO)
KABE
031951Z 12006KT 3SM -SN FEW013 SCT036 OVC049 M04/M07 A3023 RMK AO2 SLP243 P0002 T10391072
(29.3 nm SW from KMPO)
TAF Summary (Translated TAF)
KAVP
(19.6 nm NW from KMPO)
031730Z 0318/0418 20007KT 1SM -SN OVC015 FM032100 20008KT 3SM -PL OVC015 FM040000 21008KT 4SM -FZRA OVC012 FM040400 24005KT 5SM BR OVC008 FM041200 28007KT P6SM OVC025
KABE
(29.3 nm SW from KMPO)
031840Z 0319/0418 15004KT 4SM -SN OVC025 TEMPO 0319/0321 1SM -SN OVC015 FM032100 14006KT 1SM -SNPL OVC008 FM040200 17006KT 1SM -FZRAPL OVC005 FM040500 21006KT 2SM -FZRA BR OVC003 WS020/23040KT FM040800 23004KT 2SM -RA BR OVC003 FM041100 28005KT 2SM -RA BR OVC009
  Airport Weather Conditions for KMPO

 Current Weather at MPO
17° F
Snow
Southeast winds at 10.4 mph
MPO NOAA Radar

Pressure: 30.13 in
Humidity: 80%
Wind: Southeast at 10.4 MPH (9 KT)
Dew Point: 12.0°F
Visibility: 0.50 mi


Airport Weather Forecast for KMPO

Translated METAR and TAF for KMPO
Translated METAR for KMPO (2019 UTC 03 March 2015)
found at http://aviationweather.gov/adds/metars/
 
METAR text: KMPO 032009Z AUTO 14009KT 1/2SM SN FZFG SCT009 OVC016 M08/M10 A3007 RMK AO2 P0001 T10781100
Conditions at: KMPO (MT. POCONO , PA, US) observed 2009 UTC 03 March 2015
Temperature: -7.8°C (18°F)
Dewpoint: -10.0°C (14°F) [RH = 84%]
Pressure (altimeter): 30.07 inches Hg (1018.4 mb)
Winds: from the SE (140 degrees) at 10 MPH (9 knots; 4.7 m/s)
Visibility: 0.50 miles (0.80 km)
Ceiling: 1600 feet AGL
Clouds: scattered clouds at 900 feet AGL
overcast cloud deck at 1600 feet AGL
Weather: SN FZFG  (snow, freezing fog)
Translated TAF for KMPO

There is no translated TAF available for this airport

Find All Airport Services Find A Hotel Find A Rental Car Find A Golf Course Find A Restaurant $100 Hamburger



FBO's on the Field
FBO Company Facility Photos Services Transportation Aviation Fuel Prices: Prices include tax
Catering Weather Repair Courtesy Rental Type 100LL JetA JetA+ MOGAS 8087
 
Pocono Mountains Municipal Airport Authority

This FBO has not yet been rated
FS:Phillips 66
Last Updated: Jan-29
Login to update fuel prices
SS:
Contact Pocono Mountains Municipal Airport AuthorityMore FBO Information
 
Add another FBO Facility Photos Catering Weather Repair Courtesy Rental Type 100LL JetA JetA+ MOGAS 8087
Services Transportation Aviation Fuel Prices: Prices include tax


model-print
model-print
model-print
model-print